createdAt,value
2019-04-14T00:00:59.510Z,97.68
2019-04-14T00:01:58.812Z,97.99
2019-04-14T00:02:58.460Z,97.78
2019-04-14T00:03:58.709Z,97.99
2019-04-14T00:04:59.439Z,97.78
2019-04-14T00:05:58.421Z,98.10
2019-04-14T00:06:59.165Z,98.31
2019-04-14T00:07:58.385Z,97.99
2019-04-14T00:08:58.655Z,98.20
2019-04-14T00:09:58.531Z,98.10
2019-04-14T00:10:59.416Z,97.99
2019-04-14T00:11:59.104Z,97.89
2019-04-14T00:12:58.419Z,98.31
2019-04-14T00:13:58.860Z,98.31
2019-04-14T00:14:58.358Z,98.35
2019-04-14T00:15:58.894Z,98.31
2019-04-14T00:16:59.565Z,98.10
2019-04-14T00:17:59.000Z,98.31
2019-04-14T00:18:58.351Z,98.35
2019-04-14T00:19:58.824Z,98.31
2019-04-14T00:20:58.277Z,98.20
2019-04-14T00:21:58.680Z,98.46
2019-04-14T00:22:58.299Z,98.14
2019-04-14T00:23:58.829Z,97.58
2019-04-14T00:24:59.738Z,98.31
2019-04-14T00:25:58.649Z,98.31
2019-04-14T00:26:59.465Z,98.25
2019-04-14T00:27:58.614Z,98.46
2019-04-14T00:28:58.217Z,98.77
2019-04-14T00:29:58.966Z,98.56
2019-04-14T00:30:58.236Z,98.66
2019-04-14T00:31:58.780Z,98.25
2019-04-14T00:32:59.390Z,98.66
2019-04-14T00:33:58.595Z,98.56
2019-04-14T00:34:59.287Z,98.46
2019-04-14T00:35:58.123Z,98.14
2019-04-14T00:36:58.851Z,99.60
2019-04-14T00:37:59.464Z,99.40
2019-04-14T00:38:58.489Z,98.97
2019-04-14T00:39:58.035Z,99.29
2019-04-14T00:40:58.338Z,99.29
2019-04-14T00:42:01.375Z,99.29
2019-04-14T00:42:58.252Z,99.29
2019-04-14T00:43:59.157Z,99.18
2019-04-14T00:44:58.135Z,99.40
2019-04-14T00:46:00.536Z,99.29
2019-04-14T00:46:58.238Z,99.40
2019-04-14T00:48:03.417Z,99.40
2019-04-14T00:48:58.914Z,99.50
2019-04-14T00:49:57.953Z,99.71
2019-04-14T00:50:58.150Z,98.87
2019-04-14T00:51:59.197Z,99.18
2019-04-14T00:52:58.842Z,99.29
2019-04-14T00:53:58.055Z,99.08
2019-04-14T00:54:58.698Z,99.29
2019-04-14T00:55:57.922Z,99.18
2019-04-14T00:56:58.486Z,99.18
2019-04-14T00:57:57.908Z,99.18
2019-04-14T00:58:58.253Z,99.18
2019-04-14T00:59:57.929Z,98.97
2019-04-14T01:00:58.065Z,99.18
2019-04-14T01:01:59.077Z,99.18
2019-04-14T01:02:58.015Z,98.87
2019-04-14T01:03:59.073Z,99.18
2019-04-14T01:04:57.770Z,99.18
2019-04-14T01:05:58.987Z,99.24
2019-04-14T01:06:57.732Z,99.60
2019-04-14T01:07:58.764Z,99.81
2019-04-14T01:08:57.714Z,99.29
2019-04-14T01:09:57.782Z,99.14
2019-04-14T01:10:58.358Z,99.18
2019-04-14T01:11:57.823Z,99.18
2019-04-14T01:12:58.160Z,99.29
2019-04-14T01:13:57.721Z,98.97
2019-04-14T01:14:58.214Z,99.29
2019-04-14T01:16:05.240Z,99.29
2019-04-14T01:16:58.643Z,99.18
2019-04-14T01:18:58.658Z,99.60
2019-04-14T01:19:57.646Z,99.40
2019-04-14T01:20:57.876Z,99.40
2019-04-14T01:21:58.788Z,99.60
2019-04-14T01:22:57.550Z,99.71
2019-04-14T01:24:59.898Z,99.60
2019-04-14T01:25:58.455Z,99.60
2019-04-14T01:26:57.538Z,99.60
2019-04-14T01:28:59.335Z,98.46
2019-04-14T01:29:58.168Z,98.56
2019-04-14T01:30:57.473Z,98.60
2019-04-14T01:31:57.914Z,98.46
2019-04-14T01:32:57.448Z,98.77
2019-04-14T01:33:57.640Z,98.92
2019-04-14T01:34:57.426Z,99.54
2019-04-14T01:35:57.455Z,99.44
2019-04-14T01:36:58.530Z,99.40
2019-04-14T01:37:57.480Z,99.33
2019-04-14T01:38:58.136Z,98.92
2019-04-14T01:39:58.596Z,99.02
2019-04-14T01:40:57.765Z,99.13
2019-04-14T01:41:58.573Z,99.23
2019-04-14T01:42:57.364Z,99.23
2019-04-14T01:43:58.250Z,99.23
2019-04-14T01:44:57.317Z,99.44
2019-04-14T01:46:07.200Z,99.80
2019-04-14T01:46:58.827Z,99.69
2019-04-14T01:47:57.577Z,99.80
2019-04-14T01:48:58.529Z,99.80
2019-04-14T01:49:57.421Z,99.80
2019-04-14T01:50:58.328Z,99.90
2019-04-14T01:51:57.379Z,99.84
2019-04-14T01:52:57.268Z,99.99
2019-04-14T01:53:57.514Z,99.99
2019-04-14T01:54:58.268Z,99.74
2019-04-14T01:55:57.283Z,99.95
2019-04-14T01:56:58.120Z,99.95
2019-04-14T01:57:57.348Z,99.63
2019-04-14T01:58:57.943Z,99.84
2019-04-14T01:59:57.205Z,99.53
2019-04-14T02:00:57.586Z,99.53
2019-04-14T02:01:57.241Z,99.74
2019-04-14T02:02:57.613Z,99.74
2019-04-14T02:03:58.406Z,99.95
2019-04-14T02:04:57.560Z,99.99
2019-04-14T02:05:58.288Z,99.99
2019-04-14T02:06:57.420Z,99.99
2019-04-14T02:07:57.980Z,99.99
2019-04-14T02:08:57.093Z,99.99
2019-04-14T02:09:57.559Z,99.99
2019-04-14T02:10:57.046Z,99.99
2019-04-14T02:12:58.489Z,99.99
2019-04-14T02:13:57.254Z,99.99
2019-04-14T02:14:58.040Z,99.99
2019-04-14T02:15:57.385Z,99.99
2019-04-14T02:16:59.532Z,99.99
2019-04-14T02:17:57.059Z,99.99
2019-04-14T02:18:58.475Z,99.99
2019-04-14T02:19:57.038Z,99.99
2019-04-14T02:20:57.902Z,99.99
2019-04-14T02:21:58.343Z,99.99
2019-04-14T02:22:57.347Z,99.99
2019-04-14T02:24:59.161Z,99.99
2019-04-14T02:25:57.961Z,99.99
2019-04-14T02:26:57.083Z,99.99
2019-04-14T02:27:57.979Z,99.99
2019-04-14T02:28:57.151Z,99.99
2019-04-14T02:29:58.122Z,99.99
2019-04-14T02:31:10.470Z,99.99
2019-04-14T02:32:27.287Z,99.99
2019-04-14T02:33:33.769Z,99.99
2019-04-14T02:34:41.609Z,99.99
2019-04-14T02:35:32.704Z,99.99
2019-04-14T02:36:32.652Z,99.99
2019-04-14T02:39:42.065Z,99.99
2019-04-14T02:40:28.658Z,99.99
2019-04-14T02:41:33.738Z,99.99
2019-04-14T02:42:36.801Z,99.99
2019-04-14T02:43:29.359Z,99.99
2019-04-14T02:45:26.833Z,99.99
2019-04-14T02:46:26.358Z,99.99
2019-04-14T02:47:47.281Z,99.99
2019-04-14T02:48:38.195Z,99.99
2019-04-14T02:49:27.419Z,99.99
2019-04-14T02:50:28.009Z,99.99
2019-04-14T02:52:29.994Z,99.99
2019-04-14T02:53:32.539Z,99.99
2019-04-14T02:54:48.034Z,99.99
2019-04-14T02:55:23.685Z,99.99
2019-04-14T02:56:36.626Z,99.99
2019-04-14T02:58:32.717Z,99.99
2019-04-14T02:59:23.008Z,99.99
2019-04-14T03:00:24.061Z,99.99
2019-04-14T03:01:38.737Z,99.99
2019-04-14T03:02:38.559Z,99.99
2019-04-14T03:04:35.173Z,99.99
2019-04-14T03:05:26.707Z,99.99
2019-04-14T03:06:17.857Z,99.99
2019-04-14T03:07:40.287Z,99.99
2019-04-14T03:08:25.752Z,99.99
2019-04-14T03:09:28.890Z,99.99
2019-04-14T03:10:28.114Z,99.99
2019-04-14T03:11:25.800Z,99.99
2019-04-14T03:12:24.837Z,99.99
2019-04-14T03:14:23.324Z,99.99
2019-04-14T03:15:25.647Z,99.99
2019-04-14T03:16:33.005Z,99.99
2019-04-14T03:17:31.501Z,99.99
2019-04-14T03:19:29.912Z,99.99
2019-04-14T03:21:34.813Z,99.99
2019-04-14T03:22:33.101Z,99.99
2019-04-14T03:23:30.851Z,99.99
2019-04-14T03:24:35.888Z,99.99
2019-04-14T03:25:09.745Z,99.99
2019-04-14T03:26:17.682Z,99.99
2019-04-14T03:27:39.942Z,99.99
2019-04-14T03:28:27.205Z,99.99
2019-04-14T03:29:26.814Z,99.99
2019-04-14T03:30:46.013Z,99.99
2019-04-14T03:31:49.514Z,99.99
2019-04-14T03:32:48.119Z,99.99
2019-04-14T03:35:58.573Z,99.99
2019-04-14T03:37:45.132Z,99.99
2019-04-14T03:38:24.589Z,99.99
2019-04-14T03:39:27.238Z,99.99
2019-04-14T03:40:28.057Z,99.99
2019-04-14T03:42:29.302Z,99.99
2019-04-14T03:43:25.237Z,99.99
2019-04-14T03:44:28.633Z,99.99
2019-04-14T03:45:25.751Z,99.99
2019-04-14T03:46:25.366Z,99.99
2019-04-14T03:47:25.486Z,99.99
2019-04-14T03:48:45.266Z,99.99
2019-04-14T03:49:26.290Z,99.99
2019-04-14T03:50:21.229Z,99.99
2019-04-14T03:51:44.608Z,99.99
2019-04-14T03:52:22.249Z,99.99
2019-04-14T03:53:27.651Z,99.99
2019-04-14T03:54:15.609Z,99.99
2019-04-14T03:56:02.434Z,99.99
2019-04-14T03:56:57.651Z,99.99
2019-04-14T03:58:57.689Z,99.99
2019-04-14T03:59:56.369Z,99.99
2019-04-14T04:00:55.914Z,99.99
2019-04-14T04:01:56.571Z,99.99
2019-04-14T04:02:55.852Z,99.99
2019-04-14T04:03:56.447Z,99.99
2019-04-14T04:04:55.834Z,99.99
2019-04-14T04:05:56.429Z,99.99
2019-04-14T04:06:55.845Z,99.99
2019-04-14T04:07:56.061Z,99.99
2019-04-14T04:08:55.791Z,99.99
2019-04-14T04:09:56.216Z,99.99
2019-04-14T04:10:55.795Z,99.99
2019-04-14T04:11:56.830Z,99.99
2019-04-14T04:12:55.764Z,99.99
2019-04-14T04:13:56.378Z,99.99
2019-04-14T04:14:55.740Z,99.99
2019-04-14T04:15:56.226Z,99.99
2019-04-14T04:16:55.731Z,99.99
2019-04-14T04:17:55.919Z,99.99
2019-04-14T04:19:02.705Z,99.99
2019-04-14T04:19:57.768Z,99.99
2019-04-14T04:20:56.638Z,99.99
2019-04-14T04:21:55.659Z,99.99
2019-04-14T04:22:56.561Z,99.99
2019-04-14T04:23:55.644Z,99.99
2019-04-14T04:25:57.274Z,99.99
2019-04-14T04:26:56.736Z,99.99
2019-04-14T04:27:56.688Z,99.99
2019-04-14T04:28:56.235Z,99.99
2019-04-14T04:29:55.571Z,99.99
2019-04-14T04:30:55.934Z,99.99
2019-04-14T04:31:56.751Z,99.99
2019-04-14T04:32:55.897Z,99.99
2019-04-14T04:33:56.537Z,99.99
2019-04-14T04:34:55.650Z,99.99
2019-04-14T04:35:56.465Z,99.99
2019-04-14T04:36:55.684Z,99.99
2019-04-14T04:37:56.339Z,99.99
2019-04-14T04:38:55.556Z,99.99
2019-04-14T04:39:56.148Z,99.99
2019-04-14T04:41:56.520Z,99.99
2019-04-14T04:43:56.473Z,99.99
2019-04-14T04:44:55.488Z,99.99
2019-04-14T04:45:55.929Z,99.99
2019-04-14T04:46:55.531Z,99.99
2019-04-14T04:47:55.653Z,99.99
2019-04-14T04:49:57.500Z,99.99
2019-04-14T04:50:56.401Z,99.99
2019-04-14T04:51:55.332Z,99.99
2019-04-14T04:52:56.194Z,99.99
2019-04-14T04:53:55.314Z,99.99
2019-04-14T04:54:55.899Z,99.99
2019-04-14T04:55:55.293Z,99.99
2019-04-14T04:57:56.660Z,99.99
2019-04-14T04:58:55.390Z,99.99
2019-04-14T04:59:56.146Z,99.99
2019-04-14T05:00:57.354Z,99.99
2019-04-14T05:01:55.907Z,99.99
2019-04-14T05:02:55.336Z,99.99
2019-04-14T05:03:55.712Z,99.99
2019-04-14T05:04:55.324Z,99.99
2019-04-14T05:05:55.743Z,99.99
2019-04-14T05:06:55.241Z,99.99
2019-04-14T05:07:55.468Z,99.99
2019-04-14T05:08:55.290Z,99.99
2019-04-14T05:09:55.601Z,99.99
2019-04-14T05:11:56.724Z,99.99
2019-04-14T05:12:56.418Z,99.99
2019-04-14T05:13:55.350Z,99.99
2019-04-14T05:14:55.184Z,99.99
2019-04-14T05:15:55.301Z,99.99
2019-04-14T05:16:55.199Z,99.99
2019-04-14T05:17:55.950Z,99.99
2019-04-14T05:18:55.256Z,99.99
2019-04-14T05:19:56.136Z,99.99
2019-04-14T05:20:55.468Z,99.99
2019-04-14T05:21:55.949Z,99.99
2019-04-14T05:22:55.094Z,99.99
2019-04-14T05:23:56.047Z,99.99
2019-04-14T05:24:55.074Z,99.99
2019-04-14T05:25:56.089Z,99.99
2019-04-14T05:26:55.077Z,99.99
2019-04-14T05:27:55.842Z,99.99
2019-04-14T05:28:57.012Z,99.99
2019-04-14T05:29:55.863Z,99.99
2019-04-14T05:30:55.025Z,99.99
2019-04-14T05:31:55.542Z,99.99
2019-04-14T05:32:55.029Z,99.99
2019-04-14T05:33:55.478Z,99.99
2019-04-14T05:34:54.964Z,99.99
2019-04-14T05:35:55.324Z,99.99
2019-04-14T05:36:54.948Z,99.99
2019-04-14T05:37:55.089Z,99.99
2019-04-14T05:38:55.961Z,99.99
2019-04-14T05:39:54.888Z,99.99
2019-04-14T05:40:56.109Z,99.99
2019-04-14T05:42:04.130Z,99.99
2019-04-14T05:42:55.930Z,99.99
2019-04-14T05:43:58.908Z,99.99
2019-04-14T05:44:55.874Z,99.99
2019-04-14T05:45:54.798Z,99.93
2019-04-14T05:46:55.732Z,99.83
2019-04-14T05:47:54.823Z,99.99
2019-04-14T05:48:55.774Z,99.99
2019-04-14T05:49:56.536Z,99.99
2019-04-14T05:50:55.484Z,99.99
2019-04-14T05:51:54.730Z,99.99
2019-04-14T05:52:55.700Z,99.99
2019-04-14T05:53:54.764Z,99.99
2019-04-14T05:54:55.798Z,99.68
2019-04-14T05:55:54.810Z,99.89
2019-04-14T05:56:55.752Z,99.89
2019-04-14T05:57:54.690Z,99.89
2019-04-14T05:58:55.690Z,99.89
2019-04-14T05:59:54.845Z,99.99
2019-04-14T06:00:55.736Z,99.99
2019-04-14T06:01:54.717Z,99.89
2019-04-14T06:02:55.176Z,99.89
2019-04-14T06:03:56.017Z,99.79
2019-04-14T06:04:55.059Z,99.74
2019-04-14T06:05:54.791Z,99.68
2019-04-14T06:06:54.618Z,99.32
2019-04-14T06:07:55.602Z,99.53
2019-04-14T06:08:54.562Z,99.84
2019-04-14T06:09:54.928Z,99.84
2019-04-14T06:10:54.666Z,99.05
2019-04-14T06:11:54.748Z,98.69
2019-04-14T06:12:54.498Z,98.38
2019-04-14T06:13:55.039Z,98.38
2019-04-14T06:14:54.534Z,98.90
2019-04-14T06:16:09.102Z,98.80
2019-04-14T06:16:54.566Z,98.69
2019-04-14T06:18:15.528Z,98.23
2019-04-14T06:18:54.502Z,98.38
2019-04-14T06:19:54.894Z,98.28
2019-04-14T06:20:54.428Z,98.13
2019-04-14T06:21:54.663Z,98.02
2019-04-14T06:22:54.549Z,97.81
2019-04-14T06:24:15.445Z,98.02
2019-04-14T06:24:54.506Z,97.92
2019-04-14T06:26:16.183Z,98.02
2019-04-14T06:26:54.490Z,97.98
2019-04-14T06:28:15.501Z,97.88
2019-04-14T06:28:54.429Z,97.56
2019-04-14T06:30:15.429Z,97.98
2019-04-14T06:30:54.484Z,98.19
2019-04-14T06:31:54.395Z,96.94
2019-04-14T06:32:54.263Z,96.94
2019-04-14T06:33:54.298Z,96.62
2019-04-14T06:34:54.239Z,97.14
2019-04-14T06:35:54.350Z,96.73
2019-04-14T06:36:54.248Z,96.79
2019-04-14T06:37:54.390Z,96.83
2019-04-14T06:38:54.216Z,96.58
2019-04-14T06:39:54.252Z,96.69
2019-04-14T06:40:54.178Z,96.58
2019-04-14T06:41:54.285Z,96.69
2019-04-14T06:42:54.165Z,96.69
2019-04-14T06:43:54.277Z,96.89
2019-04-14T06:44:54.130Z,96.48
2019-04-14T06:45:54.183Z,97.10
2019-04-14T06:46:54.152Z,95.95
2019-04-14T06:47:54.211Z,96.06
2019-04-14T06:48:54.091Z,95.43
2019-04-14T06:49:54.104Z,95.64
2019-04-14T06:50:54.075Z,95.39
2019-04-14T06:51:54.162Z,95.60
2019-04-14T06:52:54.047Z,94.98
2019-04-14T06:53:54.134Z,95.50
2019-04-14T06:54:54.044Z,95.08
2019-04-14T06:55:55.117Z,95.14
2019-04-14T06:56:54.044Z,95.14
2019-04-14T06:57:54.063Z,94.99
2019-04-14T06:58:53.982Z,94.93
2019-04-14T06:59:54.076Z,94.62
2019-04-14T07:00:53.973Z,94.51
2019-04-14T07:01:54.031Z,94.37
2019-04-14T07:02:53.949Z,94.26
2019-04-14T07:03:54.000Z,94.37
2019-04-14T07:04:53.921Z,93.43
2019-04-14T07:05:54.014Z,93.18
2019-04-14T07:06:53.932Z,92.24
2019-04-14T07:07:57.128Z,92.29
2019-04-14T07:08:53.883Z,91.83
2019-04-14T07:09:53.941Z,92.45
2019-04-14T07:10:53.900Z,93.14
2019-04-14T07:11:54.059Z,93.24
2019-04-14T07:12:53.848Z,92.30
2019-04-14T07:13:53.872Z,92.30
2019-04-14T07:14:53.810Z,91.95
2019-04-14T07:15:53.888Z,91.99
2019-04-14T07:16:58.467Z,91.43
2019-04-14T07:17:53.826Z,91.33
2019-04-14T07:18:53.800Z,91.12
2019-04-14T07:20:01.883Z,90.04
2019-04-14T07:20:54.765Z,89.62
2019-04-14T07:21:53.752Z,89.62
2019-04-14T07:22:53.749Z,90.35
2019-04-14T07:24:54.766Z,89.27
2019-04-14T07:25:53.719Z,89.58
2019-04-14T07:26:53.685Z,89.79
2019-04-14T07:27:53.714Z,89.69
2019-04-14T07:28:56.908Z,88.13
2019-04-14T07:29:53.674Z,87.61
2019-04-14T07:30:53.636Z,87.92
2019-04-14T07:31:53.632Z,87.78
2019-04-14T07:32:53.648Z,88.20
2019-04-14T07:33:53.642Z,88.61
2019-04-14T07:34:53.600Z,87.16
2019-04-14T07:35:53.591Z,87.74
2019-04-14T07:36:53.578Z,87.74
2019-04-14T07:37:53.611Z,87.32
2019-04-14T07:38:53.552Z,87.38
2019-04-14T07:40:54.585Z,87.07
2019-04-14T07:41:53.536Z,86.87
2019-04-14T07:42:53.536Z,85.69
2019-04-14T07:43:53.518Z,85.42
2019-04-14T07:44:53.483Z,85.58
2019-04-14T07:45:53.484Z,85.58
2019-04-14T07:46:53.467Z,85.00
2019-04-14T07:47:53.526Z,85.69
2019-04-14T07:48:53.487Z,85.17
2019-04-14T07:49:53.488Z,85.83
2019-04-14T07:50:53.433Z,84.44
2019-04-14T07:51:53.488Z,83.41
2019-04-14T07:52:53.429Z,83.31
2019-04-14T07:53:53.421Z,82.62
2019-04-14T07:54:53.374Z,82.93
2019-04-14T07:56:54.410Z,83.93
2019-04-14T07:57:53.386Z,83.93
2019-04-14T07:58:53.368Z,83.68
2019-04-14T07:59:53.389Z,83.47
2019-04-14T08:00:53.322Z,82.89
2019-04-14T08:01:53.310Z,83.58
2019-04-14T08:02:53.326Z,83.75
2019-04-14T08:03:53.293Z,83.12
2019-04-14T08:04:53.303Z,80.16
2019-04-14T08:05:53.276Z,80.57
2019-04-14T08:06:53.257Z,81.61
2019-04-14T08:07:53.245Z,80.95
2019-04-14T08:08:53.221Z,81.57
2019-04-14T08:09:53.224Z,81.99
2019-04-14T08:10:53.235Z,82.29
2019-04-14T08:11:53.194Z,83.09
2019-04-14T08:12:53.187Z,82.26
2019-04-14T08:13:53.211Z,82.84
2019-04-14T08:14:53.159Z,82.84
2019-04-14T08:15:53.156Z,80.71
2019-04-14T08:16:53.145Z,81.12
2019-04-14T08:17:53.133Z,81.09
2019-04-14T08:18:53.178Z,80.77
2019-04-14T08:19:53.112Z,79.84
2019-04-14T08:20:53.105Z,79.29
2019-04-14T08:21:53.092Z,80.46
2019-04-14T08:22:53.075Z,80.74
2019-04-14T08:23:53.083Z,80.01
2019-04-14T08:24:53.111Z,78.98
2019-04-14T08:25:53.094Z,78.36
2019-04-14T08:26:53.045Z,79.08
2019-04-14T08:27:53.037Z,78.25
2019-04-14T08:28:53.014Z,78.77
2019-04-14T08:29:53.042Z,79.91
2019-04-14T08:30:53.019Z,79.49
2019-04-14T08:31:52.981Z,79.39
2019-04-14T08:32:52.966Z,80.90
2019-04-14T08:33:52.988Z,78.74
2019-04-14T08:34:52.984Z,79.01
2019-04-14T08:35:52.934Z,77.60
2019-04-14T08:36:52.925Z,76.87
2019-04-14T08:37:52.922Z,78.22
2019-04-14T08:38:52.943Z,77.98
2019-04-14T08:39:52.924Z,79.01
2019-04-14T08:40:52.878Z,79.52
2019-04-14T08:41:52.880Z,78.18
2019-04-14T08:42:52.894Z,78.35
2019-04-14T08:43:52.871Z,77.49
2019-04-14T08:44:52.861Z,76.35
2019-04-14T08:45:52.835Z,78.31
2019-04-14T08:46:52.816Z,77.39
2019-04-14T08:47:52.816Z,78.31
2019-04-14T08:48:52.794Z,74.36
2019-04-14T08:49:52.840Z,74.98
2019-04-14T08:50:52.781Z,75.60
2019-04-14T08:51:52.810Z,72.64
2019-04-14T08:52:52.754Z,74.67
2019-04-14T08:53:52.761Z,77.11
2019-04-14T08:54:52.769Z,76.18
2019-04-14T08:55:52.732Z,76.46
2019-04-14T08:56:52.707Z,74.91
2019-04-14T08:58:53.735Z,73.02
2019-04-14T08:59:52.717Z,71.68
2019-04-14T09:00:52.666Z,73.33
2019-04-14T09:01:52.671Z,74.84
2019-04-14T09:02:52.645Z,75.15
2019-04-14T09:03:52.640Z,73.71
2019-04-14T09:04:52.622Z,73.68
2019-04-14T09:05:52.647Z,73.05
2019-04-14T09:06:52.616Z,72.61
2019-04-14T09:07:52.609Z,73.16
2019-04-14T09:08:52.623Z,69.96
2019-04-14T09:09:52.579Z,70.37
2019-04-14T09:10:52.681Z,69.42
2019-04-14T09:11:53.590Z,69.52
2019-04-14T09:12:52.563Z,70.96
2019-04-14T09:13:52.554Z,70.34
2019-04-14T09:14:57.341Z,70.04
2019-04-14T09:15:53.532Z,70.86
2019-04-14T09:16:52.489Z,69.28
2019-04-14T09:17:52.490Z,66.91
2019-04-14T09:18:53.737Z,67.66
2019-04-14T09:19:52.488Z,68.05
2019-04-14T09:20:52.916Z,67.66
2019-04-14T09:21:52.451Z,68.05
2019-04-14T09:22:52.434Z,68.02
2019-04-14T09:24:53.459Z,67.57
2019-04-14T09:25:53.454Z,66.85
2019-04-14T09:26:52.402Z,66.85
2019-04-14T09:27:52.400Z,68.29
2019-04-14T09:28:52.382Z,66.67
2019-04-14T09:29:52.602Z,67.88
2019-04-14T09:30:52.364Z,67.57
2019-04-14T09:31:52.368Z,67.06
2019-04-14T09:32:52.319Z,65.62
2019-04-14T09:33:52.319Z,65.17
2019-04-14T09:34:52.305Z,67.33
2019-04-14T09:35:52.303Z,66.93
2019-04-14T09:36:52.312Z,65.59
2019-04-14T09:37:52.273Z,64.04
2019-04-14T09:38:52.251Z,63.43
2019-04-14T09:39:52.249Z,64.25
2019-04-14T09:40:52.261Z,63.12
2019-04-14T09:41:52.261Z,63.29
2019-04-14T09:42:52.238Z,63.20
2019-04-14T09:43:52.211Z,63.71
2019-04-14T09:44:52.197Z,63.60
2019-04-14T09:45:52.199Z,62.45
2019-04-14T09:46:52.222Z,61.96
2019-04-14T09:47:52.169Z,62.78
2019-04-14T09:48:52.141Z,63.71
2019-04-14T09:49:52.131Z,61.83
2019-04-14T09:51:03.908Z,60.52
2019-04-14T09:51:53.168Z,63.37
2019-04-14T09:52:52.112Z,62.83
2019-04-14T09:53:52.104Z,61.72
2019-04-14T09:54:52.087Z,62.48
2019-04-14T09:55:52.064Z,63.81
2019-04-14T09:56:52.086Z,62.96
2019-04-14T09:57:52.106Z,62.55
2019-04-14T09:58:52.048Z,60.47
2019-04-14T09:59:52.032Z,59.54
2019-04-14T10:00:52.048Z,59.85
2019-04-14T10:01:52.032Z,60.67
2019-04-14T10:02:52.028Z,60.85
2019-04-14T10:03:52.215Z,58.72
2019-04-14T10:05:53.046Z,59.11
2019-04-14T10:06:52.293Z,58.41
2019-04-14T10:07:52.622Z,59.54
2019-04-14T10:08:52.041Z,58.80
2019-04-14T10:09:52.156Z,59.41
2019-04-14T10:10:52.117Z,59.80
2019-04-14T10:11:56.001Z,61.10
2019-04-14T10:12:51.924Z,59.12
2019-04-14T10:13:51.863Z,58.61
2019-04-14T10:14:51.864Z,57.56
2019-04-14T10:15:51.857Z,59.20
2019-04-14T10:16:51.849Z,58.10
2019-04-14T10:17:51.863Z,58.28
2019-04-14T10:18:51.817Z,57.69
2019-04-14T10:19:51.809Z,58.81
2019-04-14T10:20:51.802Z,57.69
2019-04-14T10:21:51.788Z,59.00
2019-04-14T10:22:51.816Z,58.35
2019-04-14T10:23:51.757Z,55.30
2019-04-14T10:24:51.752Z,57.64
2019-04-14T10:25:51.734Z,55.66
2019-04-14T10:26:51.737Z,56.38
2019-04-14T10:27:51.759Z,54.54
2019-04-14T10:28:51.709Z,55.79
2019-04-14T10:29:51.703Z,57.15
2019-04-14T10:30:51.690Z,57.59
2019-04-14T10:31:51.689Z,56.95
2019-04-14T10:32:51.682Z,56.43
2019-04-14T10:33:51.673Z,56.95
2019-04-14T10:34:51.677Z,56.64
2019-04-14T10:35:51.625Z,57.12
2019-04-14T10:36:51.621Z,57.12
2019-04-14T10:37:51.606Z,55.56
2019-04-14T10:38:51.696Z,56.46
2019-04-14T10:39:51.586Z,55.30
2019-04-14T10:40:51.571Z,55.21
2019-04-14T10:41:51.570Z,56.23
2019-04-14T10:42:51.554Z,56.43
2019-04-14T10:43:51.589Z,54.97
2019-04-14T10:44:51.547Z,54.57
2019-04-14T10:45:51.526Z,54.97
2019-04-14T10:46:51.522Z,52.83
2019-04-14T10:47:51.513Z,54.90
2019-04-14T10:48:51.602Z,53.39
2019-04-14T10:49:51.493Z,54.85
2019-04-14T10:50:51.475Z,54.67
2019-04-14T10:51:51.450Z,55.15
2019-04-14T10:52:51.448Z,56.20
2019-04-14T10:53:51.454Z,57.53
2019-04-14T10:54:51.431Z,56.23
2019-04-14T10:55:51.424Z,55.41
2019-04-14T10:56:51.405Z,55.30
2019-04-14T10:57:51.384Z,56.26
2019-04-14T10:58:51.503Z,57.28
2019-04-14T10:59:51.398Z,57.28
2019-04-14T11:00:51.360Z,57.79
2019-04-14T11:01:51.341Z,56.59
2019-04-14T11:02:51.337Z,56.90
2019-04-14T11:03:51.322Z,57.20
2019-04-14T11:04:51.382Z,57.03
2019-04-14T11:05:51.311Z,56.90
2019-04-14T11:06:51.293Z,56.84
2019-04-14T11:07:51.284Z,56.59
2019-04-14T11:08:51.296Z,54.00
2019-04-14T11:09:53.840Z,54.69
2019-04-14T11:10:51.255Z,55.58
2019-04-14T11:11:51.238Z,54.74
2019-04-14T11:12:51.230Z,52.67
2019-04-14T11:13:51.222Z,51.53
2019-04-14T11:14:51.283Z,52.34
2019-04-14T11:15:51.187Z,52.37
2019-04-14T11:16:51.178Z,51.48
2019-04-14T11:17:51.165Z,52.50
2019-04-14T11:18:51.177Z,51.89
2019-04-14T11:19:51.179Z,51.50
2019-04-14T11:20:51.145Z,50.96
2019-04-14T11:21:51.139Z,50.94
2019-04-14T11:23:02.724Z,52.04
2019-04-14T11:23:52.107Z,50.86
2019-04-14T11:24:51.123Z,51.50
2019-04-14T11:25:51.078Z,51.81
2019-04-14T11:26:51.073Z,52.11
2019-04-14T11:27:51.064Z,53.01
2019-04-14T11:28:51.063Z,53.08
2019-04-14T11:29:53.956Z,53.44
2019-04-14T11:30:51.057Z,50.59
2019-04-14T11:31:51.015Z,51.35
2019-04-14T11:32:51.026Z,51.15
2019-04-14T11:33:50.989Z,52.25
2019-04-14T11:34:50.988Z,52.67
2019-04-14T11:35:51.006Z,51.65
2019-04-14T11:36:50.971Z,50.56
2019-04-14T11:37:50.960Z,52.62
2019-04-14T11:38:50.960Z,52.22
2019-04-14T11:39:50.943Z,52.60
2019-04-14T11:40:51.944Z,52.75
2019-04-14T11:41:50.923Z,51.40
2019-04-14T11:42:52.436Z,50.18
2019-04-14T11:43:50.884Z,51.51
2019-04-14T11:44:50.893Z,49.16
2019-04-14T11:45:50.889Z,49.98
2019-04-14T11:46:50.874Z,50.31
2019-04-14T11:47:50.842Z,49.41
2019-04-14T11:48:50.844Z,50.02
2019-04-14T11:49:50.818Z,50.25
2019-04-14T11:50:50.859Z,52.29
2019-04-14T11:51:55.395Z,52.19
2019-04-14T11:52:51.804Z,51.91
2019-04-14T11:53:50.776Z,52.14
2019-04-14T11:54:50.765Z,52.85
2019-04-14T11:55:50.786Z,52.42
2019-04-14T11:56:50.757Z,51.70
2019-04-14T11:57:50.756Z,51.62
2019-04-14T11:58:50.725Z,52.87
2019-04-14T11:59:50.738Z,55.36
2019-04-14T12:00:50.716Z,52.59
2019-04-14T12:01:50.709Z,53.13
2019-04-14T12:02:50.681Z,54.05
2019-04-14T12:03:50.671Z,54.46
2019-04-14T12:04:50.672Z,54.79
2019-04-14T12:05:50.676Z,54.16
2019-04-14T12:06:50.674Z,52.16
2019-04-14T12:07:50.628Z,51.12
2019-04-14T12:08:50.620Z,51.09
2019-04-14T12:09:50.598Z,50.25
2019-04-14T12:10:50.600Z,52.25
2019-04-14T12:11:50.611Z,49.77
2019-04-14T12:12:50.584Z,49.46
2019-04-14T12:13:50.565Z,50.36
2019-04-14T12:14:50.546Z,50.23
2019-04-14T12:15:50.536Z,48.99
2019-04-14T12:16:50.550Z,49.42
2019-04-14T12:17:50.514Z,49.95
2019-04-14T12:18:50.509Z,49.98
2019-04-14T12:19:50.491Z,49.87
2019-04-14T12:20:50.499Z,49.79
2019-04-14T12:21:50.505Z,49.21
2019-04-14T12:22:50.497Z,49.21
2019-04-14T12:23:50.456Z,48.39
2019-04-14T12:24:50.446Z,49.05
2019-04-14T12:25:50.429Z,49.54
2019-04-14T12:26:50.446Z,45.77
2019-04-14T12:27:51.309Z,46.48
2019-04-14T12:28:51.492Z,46.79
2019-04-14T12:29:50.377Z,49.44
2019-04-14T12:30:51.159Z,49.37
2019-04-14T12:31:50.952Z,49.69
2019-04-14T12:32:50.374Z,49.41
2019-04-14T12:33:50.339Z,50.23
2019-04-14T12:34:50.339Z,51.89
2019-04-14T12:35:50.325Z,51.55
2019-04-14T12:36:50.342Z,50.08
2019-04-14T12:37:50.295Z,50.26
2019-04-14T12:38:50.301Z,49.90
2019-04-14T12:39:50.282Z,49.19
2019-04-14T12:40:50.278Z,49.11
2019-04-14T12:41:50.284Z,47.66
2019-04-14T12:42:50.242Z,49.13
2019-04-14T12:43:50.231Z,48.65
2019-04-14T12:44:50.225Z,49.16
2019-04-14T12:45:50.211Z,48.65
2019-04-14T12:46:50.196Z,50.26
2019-04-14T12:47:50.212Z,49.01
2019-04-14T12:48:50.196Z,48.40
2019-04-14T12:49:50.164Z,49.60
2019-04-14T12:50:50.159Z,47.77
2019-04-14T12:51:50.147Z,48.76
2019-04-14T12:52:50.180Z,46.42
2019-04-14T12:53:50.118Z,45.71
2019-04-14T12:55:51.145Z,46.60
2019-04-14T12:56:50.104Z,46.50
2019-04-14T12:57:50.121Z,46.09
2019-04-14T12:58:50.075Z,45.67
2019-04-14T12:59:50.055Z,46.48
2019-04-14T13:00:50.065Z,45.36
2019-04-14T13:01:50.042Z,46.17
2019-04-14T13:02:50.075Z,46.58
2019-04-14T13:03:50.012Z,44.95
2019-04-14T13:04:50.003Z,45.14
2019-04-14T13:05:49.992Z,45.24
2019-04-14T13:06:49.982Z,45.21
2019-04-14T13:07:49.999Z,43.69
2019-04-14T13:08:49.978Z,44.02
2019-04-14T13:09:49.949Z,44.77
2019-04-14T13:10:49.943Z,44.87
2019-04-14T13:11:49.932Z,47.90
2019-04-14T13:12:50.043Z,47.80
2019-04-14T13:13:49.923Z,48.72
2019-04-14T13:14:49.906Z,48.25
2019-04-14T13:15:49.883Z,48.10
2019-04-14T13:16:49.876Z,48.77
2019-04-14T13:17:49.891Z,49.79
2019-04-14T13:18:49.851Z,49.22
2019-04-14T13:19:49.857Z,49.35
2019-04-14T13:20:49.835Z,51.04
2019-04-14T13:21:49.808Z,51.65
2019-04-14T13:22:49.806Z,52.49
2019-04-14T13:23:49.819Z,53.23
2019-04-14T13:24:49.790Z,52.67
2019-04-14T13:25:49.783Z,52.34